x

Buoy F01 - West Penobscot Bay (44033) Wave Buoy

2:04am - Mon 29th May 2017 All times are EDT. -4 hours from GMT.

  • Sig Wave height 1.3ft
  • Peak Period 6s
  • Wind
    9mph, 9mph gusts
  • Sea Temp 48°f
  • 空気 Temp 47°f
  • Sea Pressure 1017.2mb
  • Buoy F01 - West Penobscot Bay
  • Buoy F01 - West Penobscot Bay

More Historic Weather Station data

Upgrade to MSW Pro to gain access to the past 30 days of data for over 8000 Wavebouys and Weather Stations around the globe.

Join Pro

Comparision Forecast

View Surf forecast
   
Mon 05/29 2:04am 1.3ft 6s 9 9 mph 1017.2mb 48f 47f
1:04am 1.3ft 6s 9 9 mph 1016.9mb 49f 47f
Sun 05/28 11:04pm 1.3ft 6s 7 7 mph 1017.4mb 49f 48f
10:04pm 1.3ft 8s 7 9 mph 1017.5mb 50f 48f
9:04pm 1.3ft 8s 7 9 mph 1017.3mb 49f 48f
8:04pm 1.3ft 8s 11 11 mph 1017.1mb 50f 48f
7:04pm 1.3ft 8s 11 13 mph 1016.5mb 51f 49f
6:04pm 0.7ft  -  9 11 mph 1016.2mb 51f 49f
5:04pm 1.3ft 6s 11 13 mph 1016.6mb 49f 49f
4:04pm 1ft 3s 11 13 mph 1016.2mb 50f 49f
3:04pm 1.6ft 8s 13 16 mph 1016mb 51f 49f
2:04pm 1.6ft 6s 13 16 mph 1015.5mb 50f 49f
1:04pm 1.6ft 8s 11 11 mph 1015.4mb 51f 49f
12:04pm 1.6ft 6s 9 11 mph 1015.3mb 53f 49f
11:04am 1.6ft 8s 9 11 mph 1015.4mb 52f 49f
10:04am 1.6ft 8s 9 9 mph 1016mb 50f 48f
9:04am 1.6ft 8s 4 4 mph 1016.4mb 51f 47f
8:04am 1.3ft 8s 2 2 mph 1015.6mb 51f 47f
7:04am 1.3ft 8s 4 4 mph 1015.1mb 50f 45f
6:04am 1.3ft 6s 2 4 mph 1014.2mb 50f 44f
5:04am 1.3ft 6s 2 4 mph 1014.3mb 49f 45f
4:04am 1.3ft 8s 2 4 mph 1013.8mb 50f 45f
3:04am 1.3ft 8s 2 2 mph 1013.5mb 51f 44f
2:04am 1.6ft 8s 2 2 mph 1013.3mb 49f 46f
1:04am 1.6ft 8s 4 7 mph 1014.1mb 49f 47f
12:04am 1.6ft 8s 2 4 mph 1014mb 49f 47f
Sat 05/27 11:04pm 1.6ft 8s 7 7 mph 1014mb 49f 48f
10:04pm 1.6ft 8s 9 11 mph 1013.8mb 49f 47f
9:04pm 2ft 8s 11 11 mph 1013.5mb 49f 47f
8:04pm 2ft 8s 11 13 mph 1012.8mb 50f 47f
7:04pm 1.3ft 3s 13 16 mph 1012.7mb 49f 49f
6:04pm 1ft 3s 9 13 mph 1012mb 49f 49f
5:04pm 2ft 8s 9 13 mph 1011.4mb 49f 48f
2:04pm  -   -  7 7 mph 1010.6mb - 51f
12:04pm  -   -  11 16 mph 1010.3mb - 51f
11:04am 2.5ft 8s 16 18 mph 1009.7mb 49f 50f
10:04am 1.3ft 3s 16 18 mph 1009.5mb 50f 50f
9:04am 2.5ft 8s 13 16 mph 1009.4mb 50f 49f
8:04am 2.5ft 8s 13 13 mph 1009.1mb 50f 50f
7:04am  -   -  16 18 mph 1008.4mb - 50f
5:04am 2ft 8s  -  mph - 49f -
4:04am 2ft 8s  -  mph - 47f -
Thu 05/25 10:04am 2ft 8s 9 9 mph 1014mb 46f 49f
9:04am 2.5ft 8s 7 9 mph 1014.1mb 47f 50f
8:04am 2.5ft 8s  -  mph - 49f -